sensor_id;sensor_type;location;lat;lon;timestamp;pressure;altitude;pressure_sealevel;temperature;humidity
41062;BME280;26812;42.662;23.352;2022-08-05T00:00:59;95035.84;;;21.31;59.90
41062;BME280;26812;42.662;23.352;2022-08-05T00:03:24;95036.22;;;21.26;60.05
41062;BME280;26812;42.662;23.352;2022-08-05T00:05:49;95030.00;;;21.33;59.82
41062;BME280;26812;42.662;23.352;2022-08-05T00:08:15;95056.31;;;21.45;59.82
41062;BME280;26812;42.662;23.352;2022-08-05T00:10:40;95050.84;;;21.52;59.74
41062;BME280;26812;42.662;23.352;2022-08-05T00:13:06;95041.06;;;21.47;60.07
41062;BME280;26812;42.662;23.352;2022-08-05T00:15:31;95008.44;;;21.28;60.21
41062;BME280;26812;42.662;23.352;2022-08-05T00:17:56;95040.16;;;21.29;61.25
41062;BME280;26812;42.662;23.352;2022-08-05T00:20:22;95044.56;;;20.93;62.51
41062;BME280;26812;42.662;23.352;2022-08-05T00:22:47;95020.13;;;20.70;62.58
41062;BME280;26812;42.662;23.352;2022-08-05T00:25:13;95042.44;;;20.72;62.73
41062;BME280;26812;42.662;23.352;2022-08-05T00:27:38;95041.28;;;20.76;62.67
41062;BME280;26812;42.662;23.352;2022-08-05T00:30:04;95040.91;;;20.78;62.35
41062;BME280;26812;42.662;23.352;2022-08-05T00:32:30;95033.56;;;20.86;62.45
41062;BME280;26812;42.662;23.352;2022-08-05T00:34:55;95043.34;;;20.87;62.36
41062;BME280;26812;42.662;23.352;2022-08-05T00:37:21;95028.00;;;20.78;62.61
41062;BME280;26812;42.662;23.352;2022-08-05T00:39:46;95035.13;;;20.87;62.80
41062;BME280;26812;42.662;23.352;2022-08-05T00:42:11;95035.50;;;20.82;63.08
41062;BME280;26812;42.662;23.352;2022-08-05T00:44:37;95030.81;;;20.86;63.08
41062;BME280;26812;42.662;23.352;2022-08-05T00:47:02;95024.09;;;20.80;63.15
41062;BME280;26812;42.662;23.352;2022-08-05T00:49:28;95036.22;;;20.78;62.96
41062;BME280;26812;42.662;23.352;2022-08-05T00:51:53;95038.25;;;20.85;62.59
41062;BME280;26812;42.662;23.352;2022-08-05T00:54:19;95036.94;;;20.72;63.72
41062;BME280;26812;42.662;23.352;2022-08-05T00:56:45;94983.75;;;20.25;64.13
41062;BME280;26812;42.662;23.352;2022-08-05T00:59:10;95030.09;;;20.48;64.42
41062;BME280;26812;42.662;23.352;2022-08-05T01:01:35;95040.41;;;20.62;64.19
41062;BME280;26812;42.662;23.352;2022-08-05T01:04:02;95033.72;;;20.59;63.93
41062;BME280;26812;42.662;23.352;2022-08-05T01:06:27;95039.63;;;20.65;63.31
41062;BME280;26812;42.662;23.352;2022-08-05T01:08:52;95027.97;;;20.34;64.22
41062;BME280;26812;42.662;23.352;2022-08-05T01:11:21;95048.13;;;20.53;63.79
41062;BME280;26812;42.662;23.352;2022-08-05T01:16:37;95044.63;;;20.52;62.81
41062;BME280;26812;42.662;23.352;2022-08-05T01:19:10;95035.63;;;20.52;63.02
41062;BME280;26812;42.662;23.352;2022-08-05T01:27:49;95047.06;;;20.64;62.29
41062;BME280;26812;42.662;23.352;2022-08-05T01:30:25;95031.34;;;20.54;62.31
41062;BME280;26812;42.662;23.352;2022-08-05T01:32:54;95036.81;;;20.54;62.07
41062;BME280;26812;42.662;23.352;2022-08-05T01:35:26;95043.84;;;20.55;62.18
41062;BME280;26812;42.662;23.352;2022-08-05T01:37:54;95046.50;;;20.48;62.88
41062;BME280;26812;42.662;23.352;2022-08-05T01:40:24;95039.47;;;20.47;62.62
41062;BME280;26812;42.662;23.352;2022-08-05T01:42:51;95045.84;;;20.58;62.55
41062;BME280;26812;42.662;23.352;2022-08-05T01:45:20;95036.06;;;20.57;62.43
41062;BME280;26812;42.662;23.352;2022-08-05T01:47:47;95054.09;;;20.65;62.40
41062;BME280;26812;42.662;23.352;2022-08-05T01:50:17;95046.19;;;20.53;62.62
41062;BME280;26812;42.662;23.352;2022-08-05T01:52:46;95053.22;;;20.54;62.77
41062;BME280;26812;42.662;23.352;2022-08-05T01:55:15;95051.13;;;20.40;62.53
41062;BME280;26812;42.662;23.352;2022-08-05T01:57:44;95044.72;;;20.26;63.02
41062;BME280;26812;42.662;23.352;2022-08-05T02:00:10;95045.31;;;20.12;63.04
41062;BME280;26812;42.662;23.352;2022-08-05T02:02:40;95025.91;;;19.87;63.46
41062;BME280;26812;42.662;23.352;2022-08-05T02:05:10;95051.00;;;19.93;63.57
41062;BME280;26812;42.662;23.352;2022-08-05T02:07:37;95043.25;;;19.98;63.70
41062;BME280;26812;42.662;23.352;2022-08-05T02:10:03;95045.63;;;20.03;63.97
41062;BME280;26812;42.662;23.352;2022-08-05T02:12:55;95057.78;;;20.06;63.46
41062;BME280;26812;42.662;23.352;2022-08-05T02:15:26;95051.00;;;19.63;64.74
41062;BME280;26812;42.662;23.352;2022-08-05T02:18:19;95050.53;;;19.31;65.82
41062;BME280;26812;42.662;23.352;2022-08-05T02:20:52;95049.84;;;19.37;65.57
41062;BME280;26812;42.662;23.352;2022-08-05T02:23:21;95034.19;;;19.34;65.43
41062;BME280;26812;42.662;23.352;2022-08-05T02:25:50;95044.06;;;19.42;64.86
41062;BME280;26812;42.662;23.352;2022-08-05T02:28:22;95041.25;;;19.35;64.43
41062;BME280;26812;42.662;23.352;2022-08-05T02:30:56;95037.59;;;19.28;65.11
41062;BME280;26812;42.662;23.352;2022-08-05T02:33:23;95035.06;;;19.42;64.89
41062;BME280;26812;42.662;23.352;2022-08-05T02:35:50;95023.38;;;19.41;63.95
41062;BME280;26812;42.662;23.352;2022-08-05T02:38:17;95038.28;;;19.47;63.79
41062;BME280;26812;42.662;23.352;2022-08-05T02:40:44;95044.16;;;19.49;62.76
41062;BME280;26812;42.662;23.352;2022-08-05T02:43:11;95035.53;;;19.47;63.26
41062;BME280;26812;42.662;23.352;2022-08-05T02:45:39;95039.44;;;19.46;62.55
41062;BME280;26812;42.662;23.352;2022-08-05T02:48:06;95032.38;;;19.45;62.58
41062;BME280;26812;42.662;23.352;2022-08-05T02:50:33;95024.59;;;19.47;62.66
41062;BME280;26812;42.662;23.352;2022-08-05T02:52:59;95029.88;;;19.60;62.65
41062;BME280;26812;42.662;23.352;2022-08-05T02:55:27;95000.81;;;19.48;62.72
41062;BME280;26812;42.662;23.352;2022-08-05T02:57:55;95023.59;;;19.59;62.58
41062;BME280;26812;42.662;23.352;2022-08-05T03:00:21;95041.03;;;19.77;62.03
41062;BME280;26812;42.662;23.352;2022-08-05T03:02:47;95022.16;;;19.65;62.00
41062;BME280;26812;42.662;23.352;2022-08-05T03:05:14;95026.91;;;19.72;61.87
41062;BME280;26812;42.662;23.352;2022-08-05T03:07:40;95035.47;;;19.70;62.15
41062;BME280;26812;42.662;23.352;2022-08-05T03:10:07;95042.97;;;19.77;62.28
41062;BME280;26812;42.662;23.352;2022-08-05T03:12:38;95027.28;;;19.70;62.25
41062;BME280;26812;42.662;23.352;2022-08-05T03:15:05;95038.63;;;19.72;62.51
41062;BME280;26812;42.662;23.352;2022-08-05T03:17:31;95053.56;;;19.82;62.33
41062;BME280;26812;42.662;23.352;2022-08-05T03:19:57;95046.50;;;19.77;62.53
41062;BME280;26812;42.662;23.352;2022-08-05T03:22:23;95049.56;;;19.72;62.42
41062;BME280;26812;42.662;23.352;2022-08-05T03:24:49;95041.75;;;19.44;62.96
41062;BME280;26812;42.662;23.352;2022-08-05T03:27:15;95053.38;;;19.38;63.91
41062;BME280;26812;42.662;23.352;2022-08-05T03:29:41;95042.06;;;19.39;63.84
41062;BME280;26812;42.662;23.352;2022-08-05T03:32:07;95034.16;;;19.31;63.75
41062;BME280;26812;42.662;23.352;2022-08-05T03:34:34;95039.25;;;19.32;63.54
41062;BME280;26812;42.662;23.352;2022-08-05T03:37:01;95028.47;;;19.16;63.89
41062;BME280;26812;42.662;23.352;2022-08-05T03:39:27;95046.91;;;19.23;63.91
41062;BME280;26812;42.662;23.352;2022-08-05T03:41:54;95043.81;;;19.24;63.82
41062;BME280;26812;42.662;23.352;2022-08-05T03:44:20;95043.75;;;19.21;64.28
41062;BME280;26812;42.662;23.352;2022-08-05T03:46:45;95034.63;;;19.10;64.37
41062;BME280;26812;42.662;23.352;2022-08-05T03:49:11;95044.22;;;19.27;64.19
41062;BME280;26812;42.662;23.352;2022-08-05T03:52:00;95015.69;;;19.24;64.34
41062;BME280;26812;42.662;23.352;2022-08-05T03:54:34;95048.88;;;19.52;64.41
41062;BME280;26812;42.662;23.352;2022-08-05T03:57:01;95042.19;;;19.50;64.46
41062;BME280;26812;42.662;23.352;2022-08-05T03:59:33;95038.38;;;19.54;64.37
41062;BME280;26812;42.662;23.352;2022-08-05T04:02:00;95033.28;;;19.53;64.29
41062;BME280;26812;42.662;23.352;2022-08-05T04:04:28;95037.75;;;19.65;64.59
41062;BME280;26812;42.662;23.352;2022-08-05T04:06:55;95043.38;;;19.79;64.15
41062;BME280;26812;42.662;23.352;2022-08-05T04:09:21;95040.66;;;19.79;63.90
41062;BME280;26812;42.662;23.352;2022-08-05T04:11:47;95043.81;;;19.81;63.79
41062;BME280;26812;42.662;23.352;2022-08-05T04:14:13;95044.47;;;19.71;64.39
41062;BME280;26812;42.662;23.352;2022-08-05T04:16:40;95039.91;;;19.82;64.39
41062;BME280;26812;42.662;23.352;2022-08-05T04:19:10;95046.13;;;19.79;63.99
41062;BME280;26812;42.662;23.352;2022-08-05T04:21:36;95035.59;;;19.81;63.45
41062;BME280;26812;42.662;23.352;2022-08-05T04:24:02;95029.63;;;19.72;63.59
41062;BME280;26812;42.662;23.352;2022-08-05T04:26:29;95034.03;;;19.80;63.25
41062;BME280;26812;42.662;23.352;2022-08-05T04:28:54;95036.00;;;19.83;63.28
41062;BME280;26812;42.662;23.352;2022-08-05T04:31:20;95036.75;;;19.80;63.38
41062;BME280;26812;42.662;23.352;2022-08-05T04:33:45;95042.38;;;19.91;62.80
41062;BME280;26812;42.662;23.352;2022-08-05T04:36:11;95033.78;;;19.92;62.37
41062;BME280;26812;42.662;23.352;2022-08-05T04:38:38;95041.25;;;19.95;62.19
41062;BME280;26812;42.662;23.352;2022-08-05T04:41:04;95056.84;;;19.91;62.36
41062;BME280;26812;42.662;23.352;2022-08-05T04:43:29;95024.69;;;19.84;62.49
41062;BME280;26812;42.662;23.352;2022-08-05T04:45:55;95032.72;;;20.00;62.50
41062;BME280;26812;42.662;23.352;2022-08-05T04:48:20;95043.09;;;20.21;62.32
41062;BME280;26812;42.662;23.352;2022-08-05T04:50:47;95038.91;;;20.31;61.75
41062;BME280;26812;42.662;23.352;2022-08-05T04:53:15;95039.75;;;20.38;61.29
41062;BME280;26812;42.662;23.352;2022-08-05T04:55:41;95050.41;;;20.47;60.76
41062;BME280;26812;42.662;23.352;2022-08-05T04:58:08;95028.59;;;20.54;59.99
41062;BME280;26812;42.662;23.352;2022-08-05T05:00:35;95044.41;;;20.75;59.33
41062;BME280;26812;42.662;23.352;2022-08-05T05:03:02;95038.22;;;20.82;59.07
41062;BME280;26812;42.662;23.352;2022-08-05T05:05:28;95028.78;;;20.79;58.24
41062;BME280;26812;42.662;23.352;2022-08-05T05:08:01;95028.84;;;20.83;59.46
41062;BME280;26812;42.662;23.352;2022-08-05T05:10:31;95032.78;;;20.85;59.45
41062;BME280;26812;42.662;23.352;2022-08-05T05:12:57;95032.78;;;20.89;59.86
41062;BME280;26812;42.662;23.352;2022-08-05T05:15:23;95035.56;;;20.92;60.16
41062;BME280;26812;42.662;23.352;2022-08-05T05:17:48;95048.63;;;21.13;59.60
41062;BME280;26812;42.662;23.352;2022-08-05T05:20:14;95036.91;;;21.16;59.27
41062;BME280;26812;42.662;23.352;2022-08-05T05:22:39;95019.69;;;21.16;59.22
41062;BME280;26812;42.662;23.352;2022-08-05T05:25:06;95041.00;;;21.40;58.30
41062;BME280;26812;42.662;23.352;2022-08-05T05:27:34;95037.16;;;21.55;58.02
41062;BME280;26812;42.662;23.352;2022-08-05T05:30:00;95023.13;;;21.67;57.60
41062;BME280;26812;42.662;23.352;2022-08-05T05:32:25;95020.78;;;21.73;56.23
41062;BME280;26812;42.662;23.352;2022-08-05T05:34:50;94988.63;;;21.63;55.36
41062;BME280;26812;42.662;23.352;2022-08-05T05:37:16;95026.31;;;21.77;56.45
41062;BME280;26812;42.662;23.352;2022-08-05T05:39:42;95019.28;;;21.79;56.23
41062;BME280;26812;42.662;23.352;2022-08-05T05:42:08;95027.13;;;21.91;56.23
41062;BME280;26812;42.662;23.352;2022-08-05T05:44:34;95029.59;;;22.14;56.48
41062;BME280;26812;42.662;23.352;2022-08-05T05:46:59;95029.25;;;22.30;55.99
41062;BME280;26812;42.662;23.352;2022-08-05T05:49:25;95030.47;;;22.43;55.19
41062;BME280;26812;42.662;23.352;2022-08-05T05:51:51;95033.59;;;22.59;54.95
41062;BME280;26812;42.662;23.352;2022-08-05T05:54:16;95010.06;;;22.48;54.90
41062;BME280;26812;42.662;23.352;2022-08-05T05:56:42;95038.34;;;22.80;54.54
41062;BME280;26812;42.662;23.352;2022-08-05T05:59:07;95037.97;;;22.92;54.38
41062;BME280;26812;42.662;23.352;2022-08-05T06:01:34;95027.78;;;23.04;53.76
41062;BME280;26812;42.662;23.352;2022-08-05T06:04:00;95037.16;;;23.24;52.62
41062;BME280;26812;42.662;23.352;2022-08-05T06:06:25;95028.94;;;23.31;51.60
41062;BME280;26812;42.662;23.352;2022-08-05T06:08:51;95033.63;;;23.38;52.02
41062;BME280;26812;42.662;23.352;2022-08-05T06:11:16;95030.44;;;23.50;51.50
41062;BME280;26812;42.662;23.352;2022-08-05T06:13:42;95044.59;;;23.45;50.43
41062;BME280;26812;42.662;23.352;2022-08-05T06:16:07;95041.88;;;23.31;51.83
41062;BME280;26812;42.662;23.352;2022-08-05T06:18:32;95039.88;;;23.42;51.66
41062;BME280;26812;42.662;23.352;2022-08-05T06:20:58;95042.25;;;23.61;50.29
41062;BME280;26812;42.662;23.352;2022-08-05T06:23:24;95043.38;;;23.71;49.38
41062;BME280;26812;42.662;23.352;2022-08-05T06:25:50;95028.81;;;23.81;48.92
41062;BME280;26812;42.662;23.352;2022-08-05T06:28:15;95038.16;;;24.01;48.98
41062;BME280;26812;42.662;23.352;2022-08-05T06:30:41;95036.75;;;23.61;48.75
41062;BME280;26812;42.662;23.352;2022-08-05T06:33:07;95052.47;;;23.32;50.07
41062;BME280;26812;42.662;23.352;2022-08-05T06:35:32;95039.16;;;23.02;50.41
41062;BME280;26812;42.662;23.352;2022-08-05T06:37:58;95038.34;;;23.23;50.85
41062;BME280;26812;42.662;23.352;2022-08-05T06:40:23;95025.44;;;23.02;50.29
41062;BME280;26812;42.662;23.352;2022-08-05T06:42:49;95044.63;;;23.23;50.88
41062;BME280;26812;42.662;23.352;2022-08-05T06:45:15;95041.03;;;23.55;50.23
41062;BME280;26812;42.662;23.352;2022-08-05T06:47:40;95035.84;;;23.93;50.78
41062;BME280;26812;42.662;23.352;2022-08-05T06:50:06;95038.50;;;24.14;50.25
41062;BME280;26812;42.662;23.352;2022-08-05T06:52:31;95031.31;;;24.38;50.65
41062;BME280;26812;42.662;23.352;2022-08-05T06:54:56;95026.09;;;24.58;49.19
41062;BME280;26812;42.662;23.352;2022-08-05T06:57:22;95024.81;;;24.69;48.91
41062;BME280;26812;42.662;23.352;2022-08-05T06:59:47;95023.88;;;24.90;49.41
41062;BME280;26812;42.662;23.352;2022-08-05T07:02:13;95033.59;;;25.09;48.52
41062;BME280;26812;42.662;23.352;2022-08-05T07:04:38;95026.75;;;25.24;47.96
41062;BME280;26812;42.662;23.352;2022-08-05T07:07:03;95024.34;;;25.30;46.92
41062;BME280;26812;42.662;23.352;2022-08-05T07:09:29;95009.72;;;25.33;46.77
41062;BME280;26812;42.662;23.352;2022-08-05T07:11:54;95032.78;;;25.53;46.21
41062;BME280;26812;42.662;23.352;2022-08-05T07:14:20;95009.91;;;25.56;46.41
41062;BME280;26812;42.662;23.352;2022-08-05T07:17:04;95022.97;;;25.86;43.83
41062;BME280;26812;42.662;23.352;2022-08-05T07:19:30;95040.28;;;25.90;44.05
41062;BME280;26812;42.662;23.352;2022-08-05T07:21:55;95024.56;;;25.87;43.80
41062;BME280;26812;42.662;23.352;2022-08-05T07:24:21;95029.41;;;26.10;44.69
41062;BME280;26812;42.662;23.352;2022-08-05T07:26:47;95023.16;;;26.06;43.99
41062;BME280;26812;42.662;23.352;2022-08-05T07:29:21;95032.59;;;26.09;43.73
41062;BME280;26812;42.662;23.352;2022-08-05T07:31:47;95036.25;;;26.29;44.02
41062;BME280;26812;42.662;23.352;2022-08-05T07:34:12;95022.38;;;26.36;43.95
41062;BME280;26812;42.662;23.352;2022-08-05T07:36:46;95024.47;;;26.55;43.01
41062;BME280;26812;42.662;23.352;2022-08-05T07:39:12;95028.75;;;26.60;41.30
41062;BME280;26812;42.662;23.352;2022-08-05T07:41:37;95019.41;;;26.50;40.54
41062;BME280;26812;42.662;23.352;2022-08-05T07:44:05;95030.63;;;26.67;41.91
41062;BME280;26812;42.662;23.352;2022-08-05T07:46:31;95020.38;;;26.67;41.17
41062;BME280;26812;42.662;23.352;2022-08-05T07:48:58;95025.03;;;26.97;40.97
41062;BME280;26812;42.662;23.352;2022-08-05T07:51:27;95018.88;;;26.86;40.63
41062;BME280;26812;42.662;23.352;2022-08-05T07:53:56;95004.31;;;27.09;41.20
41062;BME280;26812;42.662;23.352;2022-08-05T07:56:21;95026.97;;;27.47;40.67
41062;BME280;26812;42.662;23.352;2022-08-05T07:58:46;95030.84;;;27.73;41.13
41062;BME280;26812;42.662;23.352;2022-08-05T08:01:12;95021.09;;;27.88;38.92
41062;BME280;26812;42.662;23.352;2022-08-05T08:03:38;95007.09;;;27.95;39.29
41062;BME280;26812;42.662;23.352;2022-08-05T08:06:04;94999.19;;;28.13;39.71
41062;BME280;26812;42.662;23.352;2022-08-05T08:08:30;94986.78;;;28.02;39.48
41062;BME280;26812;42.662;23.352;2022-08-05T08:10:55;94972.91;;;28.22;39.47
41062;BME280;26812;42.662;23.352;2022-08-05T08:13:21;94958.41;;;28.14;38.67
41062;BME280;26812;42.662;23.352;2022-08-05T08:15:46;94979.22;;;28.22;38.67
41062;BME280;26812;42.662;23.352;2022-08-05T08:18:12;94974.44;;;28.42;38.69
41062;BME280;26812;42.662;23.352;2022-08-05T08:20:37;94961.75;;;28.61;37.86
41062;BME280;26812;42.662;23.352;2022-08-05T08:23:03;94967.16;;;28.85;37.12
41062;BME280;26812;42.662;23.352;2022-08-05T08:25:29;94963.16;;;29.02;36.72
41062;BME280;26812;42.662;23.352;2022-08-05T08:27:55;95030.69;;;29.44;36.97
41062;BME280;26812;42.662;23.352;2022-08-05T08:30:20;94974.19;;;29.34;36.43
41062;BME280;26812;42.662;23.352;2022-08-05T08:32:46;94992.44;;;29.64;35.64
41062;BME280;26812;42.662;23.352;2022-08-05T08:35:12;94948.69;;;29.56;35.42
41062;BME280;26812;42.662;23.352;2022-08-05T08:37:37;94971.34;;;29.96;34.95
41062;BME280;26812;42.662;23.352;2022-08-05T08:40:03;94968.41;;;30.16;33.80
41062;BME280;26812;42.662;23.352;2022-08-05T08:42:29;94946.41;;;30.09;34.12
41062;BME280;26812;42.662;23.352;2022-08-05T08:44:56;94958.00;;;30.33;33.55
41062;BME280;26812;42.662;23.352;2022-08-05T08:47:26;94980.94;;;30.62;33.69
41062;BME280;26812;42.662;23.352;2022-08-05T08:49:54;94942.78;;;30.37;32.67
41062;BME280;26812;42.662;23.352;2022-08-05T08:52:25;94973.88;;;30.57;33.17
41062;BME280;26812;42.662;23.352;2022-08-05T08:54:54;95017.66;;;30.95;32.33
41062;BME280;26812;42.662;23.352;2022-08-05T08:57:20;94957.94;;;30.62;32.65
41062;BME280;26812;42.662;23.352;2022-08-05T08:59:46;94960.31;;;30.59;32.03
41062;BME280;26812;42.662;23.352;2022-08-05T09:02:12;94955.13;;;30.36;31.70
41062;BME280;26812;42.662;23.352;2022-08-05T09:04:38;94953.66;;;30.32;31.46
41062;BME280;26812;42.662;23.352;2022-08-05T09:07:05;94921.06;;;30.19;32.34
41062;BME280;26812;42.662;23.352;2022-08-05T09:09:32;94949.75;;;30.54;31.73
41062;BME280;26812;42.662;23.352;2022-08-05T09:11:58;94937.75;;;30.19;32.42
41062;BME280;26812;42.662;23.352;2022-08-05T09:14:24;94961.91;;;30.35;32.44
41062;BME280;26812;42.662;23.352;2022-08-05T09:16:50;94938.97;;;30.18;31.93
41062;BME280;26812;42.662;23.352;2022-08-05T09:19:16;94927.22;;;29.98;31.91
41062;BME280;26812;42.662;23.352;2022-08-05T09:21:41;94945.22;;;30.48;32.50
41062;BME280;26812;42.662;23.352;2022-08-05T09:24:08;94973.22;;;31.04;31.53
41062;BME280;26812;42.662;23.352;2022-08-05T09:26:34;94962.13;;;30.79;29.82
41062;BME280;26812;42.662;23.352;2022-08-05T09:29:03;94969.00;;;30.87;29.43
41062;BME280;26812;42.662;23.352;2022-08-05T09:31:30;94892.94;;;30.55;27.85
41062;BME280;26812;42.662;23.352;2022-08-05T09:34:01;94963.53;;;31.09;30.01
41062;BME280;26812;42.662;23.352;2022-08-05T09:39:08;94964.22;;;31.47;28.94
41062;BME280;26812;42.662;23.352;2022-08-05T09:41:34;94898.31;;;31.23;27.85
41062;BME280;26812;42.662;23.352;2022-08-05T09:44:38;94869.53;;;30.91;28.79
41062;BME280;26812;42.662;23.352;2022-08-05T09:47:19;94938.31;;;31.38;28.36
41062;BME280;26812;42.662;23.352;2022-08-05T09:49:46;94946.75;;;30.87;27.05
41062;BME280;26812;42.662;23.352;2022-08-05T09:52:32;94944.22;;;30.54;27.83
41062;BME280;26812;42.662;23.352;2022-08-05T09:57:41;94951.38;;;31.15;28.33
41062;BME280;26812;42.662;23.352;2022-08-05T10:02:48;94941.50;;;31.49;27.49
41062;BME280;26812;42.662;23.352;2022-08-05T10:05:21;94942.22;;;31.40;27.49
41062;BME280;26812;42.662;23.352;2022-08-05T10:07:54;94940.41;;;31.46;27.26
41062;BME280;26812;42.662;23.352;2022-08-05T10:10:23;94939.59;;;31.59;27.95
41062;BME280;26812;42.662;23.352;2022-08-05T10:12:55;94917.59;;;31.73;28.18
41062;BME280;26812;42.662;23.352;2022-08-05T10:15:25;94927.81;;;31.76;28.75
41062;BME280;26812;42.662;23.352;2022-08-05T10:20:35;94930.00;;;31.81;27.15
41062;BME280;26812;42.662;23.352;2022-08-05T10:23:01;94921.28;;;31.92;27.13
41062;BME280;26812;42.662;23.352;2022-08-05T10:25:27;94932.16;;;31.77;27.46
41062;BME280;26812;42.662;23.352;2022-08-05T10:27:52;94925.19;;;31.60;27.32
41062;BME280;26812;42.662;23.352;2022-08-05T10:30:19;94933.97;;;31.71;27.56
41062;BME280;26812;42.662;23.352;2022-08-05T10:32:45;94910.06;;;31.61;27.09
41062;BME280;26812;42.662;23.352;2022-08-05T10:35:12;94911.28;;;31.60;25.88
41062;BME280;26812;42.662;23.352;2022-08-05T10:37:38;94913.69;;;31.71;26.81
41062;BME280;26812;42.662;23.352;2022-08-05T10:40:08;94925.84;;;32.08;27.92
41062;BME280;26812;42.662;23.352;2022-08-05T10:42:36;94915.00;;;32.10;26.52
41062;BME280;26812;42.662;23.352;2022-08-05T10:45:05;94911.44;;;32.31;26.37
41062;BME280;26812;42.662;23.352;2022-08-05T10:47:32;94914.69;;;32.30;26.78
41062;BME280;26812;42.662;23.352;2022-08-05T10:50:07;94914.94;;;32.23;27.25
41062;BME280;26812;42.662;23.352;2022-08-05T10:52:41;94917.16;;;32.06;26.45
41062;BME280;26812;42.662;23.352;2022-08-05T10:55:11;94912.34;;;32.28;26.20
41062;BME280;26812;42.662;23.352;2022-08-05T10:57:38;94903.78;;;32.23;25.48
41062;BME280;26812;42.662;23.352;2022-08-05T11:00:17;94906.81;;;32.37;26.25
41062;BME280;26812;42.662;23.352;2022-08-05T11:05:34;94881.56;;;31.35;26.39
41062;BME280;26812;42.662;23.352;2022-08-05T11:08:08;94890.22;;;31.81;26.59
41062;BME280;26812;42.662;23.352;2022-08-05T11:10:36;94852.53;;;31.89;26.43
41062;BME280;26812;42.662;23.352;2022-08-05T11:13:06;94795.03;;;31.51;26.77
41062;BME280;26812;42.662;23.352;2022-08-05T11:15:37;94844.84;;;31.71;26.07
41062;BME280;26812;42.662;23.352;2022-08-05T11:18:29;94882.66;;;32.12;24.93
41062;BME280;26812;42.662;23.352;2022-08-05T11:20:55;94881.56;;;32.10;25.81
41062;BME280;26812;42.662;23.352;2022-08-05T11:28:43;94834.47;;;31.50;25.59
41062;BME280;26812;42.662;23.352;2022-08-05T11:33:51;94794.06;;;31.67;25.93
41062;BME280;26812;42.662;23.352;2022-08-05T11:36:19;94826.22;;;32.21;26.19
41062;BME280;26812;42.662;23.352;2022-08-05T11:41:22;94876.47;;;32.80;25.01
41062;BME280;26812;42.662;23.352;2022-08-05T11:48:54;94861.78;;;33.34;25.37
41062;BME280;26812;42.662;23.352;2022-08-05T11:51:20;94821.31;;;32.34;24.89
41062;BME280;26812;42.662;23.352;2022-08-05T11:53:46;94803.56;;;32.50;24.54
41062;BME280;26812;42.662;23.352;2022-08-05T11:56:12;94795.50;;;32.61;25.67
41062;BME280;26812;42.662;23.352;2022-08-05T11:58:40;94812.16;;;32.92;26.13
41062;BME280;26812;42.662;23.352;2022-08-05T12:01:14;94828.28;;;33.16;25.72
41062;BME280;26812;42.662;23.352;2022-08-05T12:03:49;94807.66;;;33.22;25.15
41062;BME280;26812;42.662;23.352;2022-08-05T12:06:25;94848.44;;;33.47;23.94
41062;BME280;26812;42.662;23.352;2022-08-05T12:08:56;94806.72;;;33.44;24.01
41062;BME280;26812;42.662;23.352;2022-08-05T12:11:28;94852.09;;;33.90;24.28
41062;BME280;26812;42.662;23.352;2022-08-05T12:13:58;94797.22;;;33.69;24.40
41062;BME280;26812;42.662;23.352;2022-08-05T12:16:33;94821.25;;;33.66;23.69
41062;BME280;26812;42.662;23.352;2022-08-05T12:18:59;94768.25;;;33.02;23.35
41062;BME280;26812;42.662;23.352;2022-08-05T12:21:29;94848.41;;;33.29;24.49
41062;BME280;26812;42.662;23.352;2022-08-05T12:24:05;94841.59;;;33.21;24.01
41062;BME280;26812;42.662;23.352;2022-08-05T12:29:00;94845.13;;;33.67;24.48
41062;BME280;26812;42.662;23.352;2022-08-05T12:31:25;94840.16;;;33.89;24.22
41062;BME280;26812;42.662;23.352;2022-08-05T12:33:52;94831.91;;;33.95;23.47
41062;BME280;26812;42.662;23.352;2022-08-05T12:36:19;94840.91;;;33.99;23.54
41062;BME280;26812;42.662;23.352;2022-08-05T12:38:45;94820.38;;;34.11;23.89
41062;BME280;26812;42.662;23.352;2022-08-05T12:41:12;94830.84;;;34.25;23.27
41062;BME280;26812;42.662;23.352;2022-08-05T12:43:57;94824.63;;;34.40;23.40
41062;BME280;26812;42.662;23.352;2022-08-05T12:46:27;94825.25;;;34.35;23.88
41062;BME280;26812;42.662;23.352;2022-08-05T12:49:09;94814.88;;;33.75;23.83
41062;BME280;26812;42.662;23.352;2022-08-05T12:51:55;94817.28;;;34.09;24.04
41062;BME280;26812;42.662;23.352;2022-08-05T12:54:23;94805.13;;;34.12;24.58
41062;BME280;26812;42.662;23.352;2022-08-05T12:56:52;94815.91;;;34.29;24.01
41062;BME280;26812;42.662;23.352;2022-08-05T12:59:20;94806.47;;;34.35;23.90
41062;BME280;26812;42.662;23.352;2022-08-05T13:02:00;94800.03;;;34.11;24.27
41062;BME280;26812;42.662;23.352;2022-08-05T13:04:32;94800.88;;;33.93;24.20
41062;BME280;26812;42.662;23.352;2022-08-05T13:07:05;94809.72;;;33.82;24.34
41062;BME280;26812;42.662;23.352;2022-08-05T13:09:32;94804.69;;;32.98;25.26
41062;BME280;26812;42.662;23.352;2022-08-05T13:12:06;94804.47;;;32.07;25.68
41062;BME280;26812;42.662;23.352;2022-08-05T13:14:36;94799.66;;;32.07;25.81
41062;BME280;26812;42.662;23.352;2022-08-05T13:17:15;94797.44;;;31.62;25.87
41062;BME280;26812;42.662;23.352;2022-08-05T13:19:41;94800.75;;;31.48;25.94
41062;BME280;26812;42.662;23.352;2022-08-05T13:22:22;94793.00;;;31.21;26.79
41062;BME280;26812;42.662;23.352;2022-08-05T13:24:49;94786.78;;;31.39;26.87
41062;BME280;26812;42.662;23.352;2022-08-05T13:29:50;94786.59;;;31.33;26.37
41062;BME280;26812;42.662;23.352;2022-08-05T13:32:15;94796.81;;;31.58;26.87
41062;BME280;26812;42.662;23.352;2022-08-05T13:34:41;94784.97;;;31.45;26.04
41062;BME280;26812;42.662;23.352;2022-08-05T13:37:06;94786.28;;;31.31;26.22